Time;durP1;ratioP1;P1;durP2;ratioP2;P2;SDS_P1;SDS_P2;PMS_P1;PMS_P2;Temp;Humidity;BMP_temperature;BMP_pressure;BME280_temperature;BME280_humidity;BME280_pressure;Samples;Min_cycle;Max_cycle;Signal;HPM_P1;HPM_P2
2022/12/28 00:00:55;;;;;;;11.78;3.47;;;;;;;9.17;68.70;100250.91;1740874;82;21144;-66
2022/12/28 00:03:21;;;;;;;11.97;3.45;;;;;;;8.89;68.62;100253.47;1755183;81;21111;-66
2022/12/28 00:05:48;;;;;;;11.75;3.95;;;;;;;8.59;69.77;100252.09;1740994;82;21142;-67
2022/12/28 00:08:14;;;;;;;9.78;3.30;;;;;;;8.95;68.36;100255.94;1754757;81;21036;-66
2022/12/28 00:10:42;;;;;;;9.45;3.45;;;;;;;9.03;67.86;100251.30;1741111;82;21053;-66
2022/12/28 00:13:08;;;;;;;12.15;3.55;;;;;;;8.54;69.65;100252.67;1755072;81;21056;-66
2022/12/28 00:15:37;;;;;;;14.00;4.17;;;;;;;8.95;68.62;100261.19;1741125;82;21045;-65
2022/12/28 00:18:03;;;;;;;13.85;3.75;;;;;;;9.24;67.88;100263.42;1754752;81;21199;-66
2022/12/28 00:20:30;;;;;;;11.00;3.60;;;;;;;9.26;67.52;100261.61;1740934;82;21002;-66
2022/12/28 00:22:56;;;;;;;10.23;3.30;;;;;;;9.07;67.66;100256.50;1754565;81;21103;-66
2022/12/28 00:25:23;;;;;;;11.65;3.80;;;;;;;9.25;67.28;100262.53;1741071;82;21102;-66
2022/12/28 00:27:50;;;;;;;7.97;3.80;;;;;;;9.24;66.48;100268.67;1751036;81;21024;-66
2022/12/28 00:30:17;;;;;;;10.18;3.85;;;;;;;9.09;66.73;100267.36;1734164;82;21897;-66
2022/12/28 00:32:44;;;;;;;14.83;4.15;;;;;;;9.10;66.96;100270.84;1733858;82;21039;-67
2022/12/28 00:35:12;;;;;;;12.68;3.90;;;;;;;8.56;67.44;100274.50;1734095;82;21094;-66
2022/12/28 00:37:39;;;;;;;6.30;2.80;;;;;;;8.55;67.85;100274.07;1733979;82;21078;-66
2022/12/28 00:40:08;;;;;;;9.45;3.60;;;;;;;8.43;68.50;100270.47;1733737;82;21070;-66
2022/12/28 00:42:35;;;;;;;13.28;3.87;;;;;;;8.39;68.44;100271.41;1733924;82;21808;-66
2022/12/28 00:45:05;;;;;;;12.90;3.72;;;;;;;8.39;68.98;100264.84;1733699;82;21094;-68
2022/12/28 00:47:31;;;;;;;9.28;3.62;;;;;;;8.69;67.96;100267.59;1733702;82;21032;-66
2022/12/28 00:49:58;;;;;;;9.13;3.60;;;;;;;8.90;67.84;100275.34;1734095;82;21066;-67
2022/12/28 00:52:24;;;;;;;14.43;3.90;;;;;;;9.13;66.58;100273.38;1734016;82;21054;-67
2022/12/28 00:54:51;;;;;;;13.50;4.47;;;;;;;9.06;66.32;100279.25;1733976;82;21756;-66
2022/12/28 00:57:17;;;;;;;12.37;3.77;;;;;;;9.00;67.50;100290.81;1731178;81;21086;-67
2022/12/28 00:59:43;;;;;;;13.05;4.58;;;;;;;9.35;66.06;100283.67;1731146;82;21046;-66
2022/12/28 01:02:10;;;;;;;11.60;3.67;;;;;;;9.41;65.56;100290.08;1726298;82;21032;-66
2022/12/28 01:04:36;;;;;;;13.38;3.90;;;;;;;9.19;66.41;100296.39;1726204;83;21048;-66
2022/12/28 01:07:03;;;;;;;10.45;4.40;;;;;;;9.19;66.41;100296.39;1726080;83;21481;-66
2022/12/28 01:09:31;;;;;;;9.88;3.70;;;;;;;9.26;66.10;100299.71;1725882;83;21073;-66
2022/12/28 01:11:58;;;;;;;15.58;4.60;;;;;;;9.28;65.47;100301.84;1725889;83;21174;-65
2022/12/28 01:14:25;;;;;;;12.13;4.05;;;;;;;9.40;65.91;100294.05;1726161;83;21492;-67
2022/12/28 01:16:51;;;;;;;14.28;4.60;;;;;;;9.40;65.91;100294.05;1725939;83;21095;-66
2022/12/28 01:19:21;;;;;;;9.23;4.30;;;;;;;9.38;65.36;100291.45;1726187;83;21092;-65
2022/12/28 01:21:48;;;;;;;15.58;4.25;;;;;;;9.44;65.72;100284.72;1725929;83;21025;-67
2022/12/28 01:24:15;;;;;;;8.08;3.85;;;;;;;8.93;67.31;100295.83;1726214;83;21041;-67
2022/12/28 01:26:42;;;;;;;12.73;4.40;;;;;;;8.93;67.31;100295.83;1686376;83;21041;-68
2022/12/28 01:29:09;;;;;;;10.98;4.62;;;;;;;9.40;66.62;100289.65;1722976;83;21141;-66
2022/12/28 01:31:35;;;;;;;13.13;4.90;;;;;;;9.51;65.48;100293.28;1722725;83;21591;-66
2022/12/28 01:34:01;;;;;;;14.35;4.80;;;;;;;9.48;65.67;100292.50;1723074;83;21045;-66
2022/12/28 01:36:31;;;;;;;15.38;4.92;;;;;;;9.23;65.68;100290.16;1722708;83;21592;-66
2022/12/28 01:39:00;;;;;;;14.00;5.20;;;;;;;9.23;65.68;100290.16;1709260;83;21084;-66
2022/12/28 01:41:27;;;;;;;13.78;4.72;;;;;;;9.07;66.78;100296.75;1725968;82;21694;-66
2022/12/28 01:43:59;;;;;;;17.35;5.03;;;;;;;9.12;66.89;100307.13;1726106;83;21067;-67
2022/12/28 01:46:46;;;;;;;14.93;5.37;;;;;;;9.29;66.76;100292.19;1725953;81;21056;-66
2022/12/28 01:49:38;;;;;;;17.02;5.50;;;;;;;9.28;66.78;100305.79;1699414;83;21115;-65
2022/12/28 01:52:19;;;;;;;15.38;5.58;;;;;;;9.25;66.40;100312.45;1726010;83;22190;-67
2022/12/28 01:55:00;;;;;;;15.95;5.25;;;;;;;9.12;67.16;100307.13;1690311;83;21108;-66
2022/12/28 01:57:30;;;;;;;17.55;5.80;;;;;;;8.87;67.97;100307.80;1736402;82;21157;-68
2022/12/28 02:00:02;;;;;;;16.12;5.30;;;;;;;9.32;66.79;100309.20;1717293;82;21337;-66
2022/12/28 02:02:31;;;;;;;17.40;6.37;;;;;;;9.57;66.05;100302.73;1712876;83;21099;-66
2022/12/28 02:04:58;;;;;;;20.05;5.92;;;;;;;8.99;67.76;100308.77;1714183;83;21057;-66
2022/12/28 02:07:41;;;;;;;11.55;5.60;;;;;;;9.86;65.19;100301.39;1714189;83;22119;-66
2022/12/28 02:10:08;;;;;;;10.78;5.12;;;;;;;9.86;65.19;100301.39;1714331;83;21268;-66
2022/12/28 02:12:35;;;;;;;18.73;5.25;;;;;;;9.93;65.20;100305.16;1660697;83;21037;-66
2022/12/28 02:15:06;;;;;;;15.60;6.03;;;;;;;10.23;64.70;100304.16;1721841;83;21053;-65
2022/12/28 02:17:33;;;;;;;10.30;5.12;;;;;;;10.23;64.70;100304.16;1722452;83;21108;-66
2022/12/28 02:20:00;;;;;;;17.80;6.72;;;;;;;9.60;65.11;100310.09;1722028;83;21067;-65
2022/12/28 02:22:55;;;;;;;13.22;5.45;;;;;;;9.53;65.89;100306.39;1721997;83;21157;-65
2022/12/28 02:26:04;;;;;;;15.93;5.87;;;;;;;10.18;64.23;100295.56;1720949;83;21496;-65
2022/12/28 02:29:07;;;;;;;11.08;5.50;;;;;;;9.99;64.76;100311.55;1739908;82;21044;-67
2022/12/28 02:32:03;;;;;;;10.75;5.10;;;;;;;9.84;65.53;100317.67;1734098;82;21055;-65
2022/12/28 02:34:56;;;;;;;18.57;6.42;;;;;;;9.84;65.53;100317.67;1742246;82;21052;-65
2022/12/28 02:37:36;;;;;;;16.15;5.62;;;;;;;9.95;65.22;100313.87;1742305;81;21142;-65
2022/12/28 02:40:20;;;;;;;10.15;5.97;;;;;;;9.87;64.93;100311.02;1725033;82;21024;-66
2022/12/28 02:42:46;;;;;;;13.18;5.33;;;;;;;10.08;64.67;100309.95;1741829;82;21056;-65
2022/12/28 02:51:32;;;;;;;16.70;6.30;;;;;;;10.13;64.61;100330.84;1742195;82;21888;-66
2022/12/28 02:56:06;;;;;;;15.63;6.30;;;;;;;10.13;64.61;100330.84;1742131;82;21048;-66
2022/12/28 02:56:52;;;;;;;20.08;5.80;;;;;;;10.32;64.04;100335.09;1736812;81;21102;-65
2022/12/28 02:59:30;;;;;;;11.90;5.87;;;;;;;10.47;64.27;100337.23;1738328;82;21052;-66
2022/12/28 03:02:17;;;;;;;13.62;6.10;;;;;;;10.47;64.27;100337.23;1720719;83;21588;-65
2022/12/28 03:05:08;;;;;;;15.20;6.08;;;;;;;10.37;63.81;100336.64;1731268;82;22050;-66
2022/12/28 03:11:08;;;;;;;14.30;6.03;;;;;;;10.41;63.22;100341.37;1741265;82;21538;-66
2022/12/28 03:13:51;;;;;;;10.80;6.27;;;;;;;9.91;64.39;100342.02;1741413;82;21061;-66
2022/12/28 03:16:30;;;;;;;15.55;6.50;;;;;;;9.75;64.80;100348.20;1752403;81;21044;-65
2022/12/28 03:32:59;;;;;;;12.15;6.40;;;;;;;10.10;64.62;100354.18;1739224;82;21100;-66
2022/12/28 03:35:33;;;;;;;14.78;6.00;;;;;;;10.19;63.94;100359.15;1710249;82;21525;-66
2022/12/28 03:38:01;;;;;;;12.68;5.97;;;;;;;10.33;63.97;100286.78;1738734;82;21043;-66
2022/12/28 03:40:43;;;;;;;13.90;6.35;;;;;;;10.71;62.74;100352.18;1739495;82;21064;-65
2022/12/28 03:46:17;;;;;;;14.85;6.33;;;;;;;10.77;62.12;100368.72;1738864;81;21151;-67
2022/12/28 03:48:43;;;;;;;;;;;;;;;10.77;62.12;100368.72;1741891;82;21091;-67
2022/12/28 03:51:13;;;;;;;16.12;6.62;;;;;;;10.74;61.86;100364.84;1739372;82;20215;-66
2022/12/28 03:53:42;;;;;;;17.10;6.20;;;;;;;10.99;61.97;100365.72;1739077;82;21071;-66
2022/12/28 03:56:15;;;;;;;20.52;7.33;;;;;;;10.56;62.54;100363.69;1739595;81;21076;-68
2022/12/28 03:58:43;;;;;;;12.43;6.17;;;;;;;10.53;62.13;100363.33;1742389;81;21246;-67
2022/12/28 04:01:09;;;;;;;15.78;6.25;;;;;;;10.44;62.78;100371.53;1742348;81;21109;-66
2022/12/28 04:03:37;;;;;;;15.85;6.62;;;;;;;10.03;63.50;100378.94;1742495;81;21081;-67
2022/12/28 04:06:05;;;;;;;18.02;7.12;;;;;;;10.03;63.50;100378.94;1742368;81;21058;-66
2022/12/28 04:08:33;;;;;;;14.55;6.72;;;;;;;10.33;63.18;100369.70;1742221;81;21061;-67
2022/12/28 04:11:01;;;;;;;14.73;6.17;;;;;;;10.32;62.54;100379.84;1742215;82;21161;-65
2022/12/28 04:13:30;;;;;;;13.90;5.72;;;;;;;10.46;63.03;100378.94;1742349;82;21019;-65
2022/12/28 04:16:05;;;;;;;17.05;6.67;;;;;;;10.27;63.53;100386.07;1742061;81;28267;-65
2022/12/28 04:18:33;;;;;;;11.30;5.80;;;;;;;10.40;63.40;100384.38;1742363;82;21061;-66
2022/12/28 04:20:59;;;;;;;15.88;5.97;;;;;;;10.41;63.13;100384.81;1725388;82;21046;-65
2022/12/28 04:23:27;;;;;;;16.62;6.30;;;;;;;10.17;62.96;100391.66;1742286;82;21168;-65
2022/12/28 04:26:00;;;;;;;13.40;6.65;;;;;;;10.10;64.63;100396.28;1740935;81;21042;-66
2022/12/28 04:28:27;;;;;;;16.00;7.42;;;;;;;10.10;64.06;100394.97;1724848;82;21512;-66
2022/12/28 04:31:03;;;;;;;16.62;6.85;;;;;;;9.70;64.48;100405.34;1679821;85;21511;-65
2022/12/28 04:33:33;;;;;;;12.47;5.90;;;;;;;10.14;64.41;100408.41;1652980;86;21673;-66
2022/12/28 04:36:12;;;;;;;12.20;6.33;;;;;;;10.08;63.90;100398.09;1680421;84;21805;-66
2022/12/28 04:38:39;;;;;;;16.60;5.87;;;;;;;10.02;63.82;100411.42;1680621;85;21063;-66
2022/12/28 04:41:06;;;;;;;10.48;5.72;;;;;;;10.29;63.50;100407.98;1680505;85;21122;-65
2022/12/28 04:43:33;;;;;;;13.08;6.20;;;;;;;9.56;64.23;100408.38;1651549;86;21563;-66
2022/12/28 04:46:03;;;;;;;14.38;5.75;;;;;;;9.83;64.02;100419.02;1680804;85;21128;-66
2022/12/28 04:48:29;;;;;;;12.20;6.08;;;;;;;10.30;62.81;100411.47;1681029;85;21124;-66
2022/12/28 04:50:56;;;;;;;17.62;6.42;;;;;;;10.42;62.09;100413.73;1652668;85;22099;-67
2022/12/28 04:53:23;;;;;;;11.55;5.87;;;;;;;10.19;62.59;100414.84;1680411;85;21138;-65
2022/12/28 04:55:49;;;;;;;18.32;7.45;;;;;;;10.55;61.50;100415.96;1680277;85;21168;-66
2022/12/28 04:58:16;;;;;;;12.75;5.72;;;;;;;10.55;61.50;100415.96;1711120;83;21021;-66
2022/12/28 05:00:42;;;;;;;13.20;6.08;;;;;;;10.22;62.72;100422.21;1721433;83;21583;-67
2022/12/28 05:03:09;;;;;;;13.35;6.42;;;;;;;10.18;62.80;100423.20;1703688;84;21104;-65
2022/12/28 05:05:36;;;;;;;9.55;5.28;;;;;;;10.36;62.74;100427.08;1696069;84;21073;-66
2022/12/28 05:08:04;;;;;;;13.35;6.33;;;;;;;10.60;61.82;100435.95;1695482;84;21069;-66
2022/12/28 05:10:31;;;;;;;11.55;6.25;;;;;;;10.68;62.12;100430.00;1695712;84;21073;-66
2022/12/28 05:12:58;;;;;;;11.35;6.17;;;;;;;10.43;62.31;100433.87;1695790;84;22042;-67
2022/12/28 05:15:24;;;;;;;16.00;6.60;;;;;;;10.43;62.31;100433.87;1695916;84;22177;-66
2022/12/28 05:17:51;;;;;;;12.05;5.87;;;;;;;10.37;62.97;100438.46;1704430;82;21051;-66
2022/12/28 05:20:19;;;;;;;12.75;6.55;;;;;;;10.76;61.88;100440.73;1711637;83;21018;-67
2022/12/28 05:22:46;;;;;;;16.17;7.05;;;;;;;10.76;61.88;100440.73;1711414;83;21096;-66
2022/12/28 05:25:12;;;;;;;11.97;6.25;;;;;;;10.91;61.20;100452.09;1711409;83;21174;-66
2022/12/28 05:27:39;;;;;;;12.58;6.50;;;;;;;10.91;61.20;100452.09;1733046;82;21052;-66
2022/12/28 05:30:07;;;;;;;11.50;6.00;;;;;;;10.86;60.99;100450.08;1742064;82;21615;-66
2022/12/28 05:32:36;;;;;;;10.40;6.17;;;;;;;10.86;60.99;100450.08;1742073;82;21052;-66
2022/12/28 05:35:03;;;;;;;9.98;6.12;;;;;;;10.70;61.33;100461.56;1742243;82;21096;-67
2022/12/28 05:37:31;;;;;;;14.40;6.50;;;;;;;10.80;61.45;100460.34;1741956;82;21048;-65
2022/12/28 05:39:57;;;;;;;13.28;6.70;;;;;;;10.84;60.96;100462.44;1742006;82;21053;-65
2022/12/28 05:42:24;;;;;;;10.53;5.30;;;;;;;11.47;60.37;100457.64;1741993;82;21040;-67
2022/12/28 05:44:51;;;;;;;14.10;6.10;;;;;;;11.74;59.18;100468.98;1741965;81;21052;-65
2022/12/28 05:47:18;;;;;;;12.10;6.90;;;;;;;11.43;58.96;100474.02;1742058;82;21021;-67
2022/12/28 05:49:44;;;;;;;8.03;5.15;;;;;;;10.76;60.93;100478.47;1742297;82;21174;-66
2022/12/28 05:52:11;;;;;;;10.98;6.30;;;;;;;10.59;61.65;100472.89;1742187;82;21059;-65
2022/12/28 05:54:37;;;;;;;11.85;5.55;;;;;;;10.59;61.65;100472.89;1742341;82;21044;-67
2022/12/28 05:57:04;;;;;;;13.25;5.33;;;;;;;10.69;61.09;100476.48;1742154;81;21496;-66
2022/12/28 05:59:31;;;;;;;15.18;7.08;;;;;;;10.83;61.08;100487.05;1742461;82;21044;-66
2022/12/28 06:01:59;;;;;;;10.58;5.87;;;;;;;10.90;60.75;100489.45;1741966;82;21819;-67
2022/12/28 06:04:26;;;;;;;10.55;5.53;;;;;;;11.04;60.26;100499.97;1742089;82;21013;-66
2022/12/28 06:06:53;;;;;;;12.65;6.25;;;;;;;10.65;60.68;100499.91;1742265;82;21064;-67
2022/12/28 06:09:20;;;;;;;16.07;5.78;;;;;;;10.48;62.10;100515.35;1742227;82;21045;-67
2022/12/28 06:11:46;;;;;;;15.48;6.10;;;;;;;10.06;62.42;100515.69;1742296;82;21036;-66
2022/12/28 06:14:13;;;;;;;14.55;5.97;;;;;;;9.83;63.14;100515.88;1742561;82;21354;-66
2022/12/28 06:16:41;;;;;;;12.75;5.30;;;;;;;10.01;62.67;100518.91;1742256;82;21099;-66
2022/12/28 06:19:10;;;;;;;8.85;5.37;;;;;;;10.10;62.10;100518.65;1742459;82;21411;-66
2022/12/28 06:21:38;;;;;;;12.95;5.78;;;;;;;10.10;62.10;100518.65;1739582;81;21104;-66
2022/12/28 06:24:07;;;;;;;12.58;5.62;;;;;;;9.45;63.41;100529.63;1722582;82;21100;-67
2022/12/28 06:26:34;;;;;;;13.70;6.00;;;;;;;9.48;63.97;100531.30;1723994;82;21872;-67
2022/12/28 06:29:03;;;;;;;12.73;6.20;;;;;;;9.71;63.38;100535.95;1742275;82;21040;-67
2022/12/28 10:11:41;;;;;;;6.78;2.70;;;;;;;17.20;34.80;100647.50;1826939;77;22690;-67
2022/12/28 10:14:29;;;;;;;7.00;2.60;;;;;;;18.02;34.72;100639.69;1752181;81;21055;-67
2022/12/28 10:16:55;;;;;;;6.35;2.67;;;;;;;18.05;34.15;100643.48;1759013;80;21645;-68
2022/12/28 10:19:25;;;;;;;7.45;2.55;;;;;;;18.38;33.34;100647.27;1750626;81;21504;-68
2022/12/28 10:22:01;;;;;;;6.40;2.60;;;;;;;18.34;32.26;100647.55;1763917;80;21627;-67
2022/12/28 10:24:28;;;;;;;10.10;2.58;;;;;;;18.19;31.47;100638.17;1763991;81;21008;-67
2022/12/28 10:26:57;;;;;;;6.97;2.47;;;;;;;18.15;32.02;100643.78;1769874;80;21459;-68
2022/12/28 10:29:24;;;;;;;8.73;2.67;;;;;;;18.38;32.23;100643.72;1787906;80;21773;-66
2022/12/28 10:32:04;;;;;;;9.20;2.15;;;;;;;18.98;31.71;100632.88;1794516;80;20927;-69
2022/12/28 10:34:32;;;;;;;11.00;2.85;;;;;;;18.62;30.36;100636.87;1794532;79;20972;-67
2022/12/28 10:37:16;;;;;;;5.75;2.40;;;;;;;18.52;30.57;100631.75;1794388;80;21569;-67
2022/12/28 10:39:56;;;;;;;7.22;2.47;;;;;;;18.47;30.25;100648.48;1794733;79;21098;-66
2022/12/28 10:42:26;;;;;;;;;;;;;;;18.34;30.19;100647.55;1796669;79;21158;-67
2022/12/28 10:44:53;;;;;;;11.65;2.60;;;;;;;17.34;30.70;100659.55;1789460;80;20205;-67
2022/12/28 10:47:41;;;;;;;6.97;2.30;;;;;;;16.40;32.32;100647.83;1791073;80;21080;-68
2022/12/28 10:50:42;;;;;;;6.30;2.67;;;;;;;16.26;32.03;100649.04;1789648;80;21834;-67
2022/12/28 10:53:33;;;;;;;8.55;2.65;;;;;;;16.06;32.64;100660.25;1788519;80;22139;-68
2022/12/28 10:56:13;;;;;;;9.85;2.55;;;;;;;17.27;32.63;100660.84;1791674;80;21516;-68
2022/12/28 10:58:43;;;;;;;6.20;2.35;;;;;;;17.27;32.63;100660.84;1791319;80;21096;-67
2022/12/28 11:01:27;;;;;;;8.15;2.72;;;;;;;17.31;32.12;100657.08;1790999;80;21020;-67
2022/12/28 11:04:08;;;;;;;8.38;2.60;;;;;;;17.21;31.04;100655.89;1759220;81;21519;-67
2022/12/28 11:06:51;;;;;;;10.82;2.58;;;;;;;17.01;31.62;100663.65;1758122;81;21040;-68
2022/12/28 11:09:25;;;;;;;8.63;2.60;;;;;;;16.75;32.22;100657.08;1760126;81;21112;-67
2022/12/28 11:11:54;;;;;;;6.60;2.37;;;;;;;16.58;32.26;100657.48;1754287;80;21065;-67
2022/12/28 11:14:36;;;;;;;8.00;2.75;;;;;;;16.60;32.24;100661.41;1754152;81;21005;-67
2022/12/28 11:17:23;;;;;;;6.58;2.47;;;;;;;16.43;32.99;100655.66;1745606;81;21048;-68
2022/12/28 11:19:52;;;;;;;4.92;2.20;;;;;;;16.30;32.48;100654.59;1738691;82;21056;-66
2022/12/28 11:22:25;;;;;;;6.70;2.85;;;;;;;16.42;32.58;100656.59;1738601;82;21645;-67
2022/12/28 11:24:52;;;;;;;9.95;2.45;;;;;;;16.32;33.61;100656.70;1738736;82;21048;-67
2022/12/28 11:27:20;;;;;;;8.55;2.62;;;;;;;16.03;32.65;100663.04;1747226;81;21052;-67
2022/12/28 11:29:52;;;;;;;6.28;2.50;;;;;;;16.34;32.44;100662.80;1759730;81;21032;-68
2022/12/28 11:32:44;;;;;;;7.15;2.10;;;;;;;15.94;32.62;100667.49;1759770;81;21044;-67
2022/12/28 11:35:21;;;;;;;8.05;1.90;;;;;;;16.65;32.12;100667.80;1760068;81;22254;-68
2022/12/28 11:37:51;;;;;;;4.92;2.25;;;;;;;17.10;32.01;100668.94;1759705;81;21100;-67
2022/12/28 11:40:48;;;;;;;7.87;2.50;;;;;;;17.30;31.29;100671.34;1759432;81;21070;-67
2022/12/28 11:43:38;;;;;;;7.28;2.33;;;;;;;16.80;30.70;100676.80;1759810;81;21042;-68
2022/12/28 11:46:25;;;;;;;6.12;1.95;;;;;;;16.73;31.49;100678.91;1759956;80;21155;-67
2022/12/28 11:49:23;;;;;;;7.00;2.58;;;;;;;16.94;31.39;100688.40;1759680;81;21331;-68
2022/12/28 11:52:26;;;;;;;7.42;2.83;;;;;;;16.75;31.35;100699.15;1759733;81;21006;-68
2022/12/28 11:55:23;;;;;;;8.93;3.05;;;;;;;16.54;30.69;100689.19;1760195;81;21015;-68
2022/12/28 11:57:50;;;;;;;8.10;2.83;;;;;;;16.88;30.71;100703.36;1759914;80;21034;-68
2022/12/28 12:00:22;;;;;;;7.78;3.08;;;;;;;17.34;31.77;100707.47;1759946;80;21039;-68
2022/12/28 12:03:00;;;;;;;7.35;2.70;;;;;;;17.28;29.72;100707.84;1756959;81;21225;-67
2022/12/28 12:05:41;;;;;;;5.97;2.52;;;;;;;17.20;30.93;100704.73;1757448;81;21147;-66
2022/12/28 12:08:17;;;;;;;8.68;2.62;;;;;;;16.32;31.56;100708.53;1757155;81;21153;-67
2022/12/28 12:10:47;;;;;;;9.05;2.45;;;;;;;15.38;32.07;100714.94;1760613;81;21531;-68
2022/12/28 12:13:31;;;;;;;7.73;2.80;;;;;;;14.93;33.69;100721.00;1765991;81;21098;-67
2022/12/28 12:16:04;;;;;;;9.30;2.45;;;;;;;14.80;34.41;100724.66;1765806;81;21757;-66
2022/12/28 12:18:45;;;;;;;7.12;2.40;;;;;;;14.83;34.15;100727.16;1765731;81;21020;-67
2022/12/28 12:21:23;;;;;;;5.75;2.42;;;;;;;14.72;34.39;100722.80;1765918;81;21400;-67
2022/12/28 12:23:52;;;;;;;8.30;2.87;;;;;;;14.28;34.84;100729.56;1765694;81;21122;-67
2022/12/28 12:26:36;;;;;;;11.83;3.12;;;;;;;13.80;35.01;100733.33;1765449;81;21091;-67
2022/12/28 12:29:16;;;;;;;12.47;2.87;;;;;;;13.87;35.47;100740.09;1735095;82;21879;-67
2022/12/28 12:31:47;;;;;;;7.33;2.35;;;;;;;13.91;35.26;100739.05;1729419;83;21091;-66
2022/12/28 12:34:20;;;;;;;;;;;;;;;13.72;35.69;100750.00;1731942;83;21055;-67
2022/12/28 12:36:59;;;;;;;7.37;2.75;;;;;;;13.40;36.79;100756.09;1728952;82;20178;-68
2022/12/28 12:40:08;;;;;;;6.17;2.50;;;;;;;13.11;36.43;100751.87;1701379;82;21156;-67
2022/12/28 12:43:12;;;;;;;7.45;2.58;;;;;;;13.06;36.86;100753.38;1729314;82;21643;-67
2022/12/28 12:46:08;;;;;;;8.40;2.85;;;;;;;13.19;37.54;100749.35;1729406;83;21068;-67
2022/12/28 12:49:07;;;;;;;7.42;2.98;;;;;;;13.33;36.91;100754.61;1729515;83;21080;-67
2022/12/28 12:52:14;;;;;;;8.33;3.17;;;;;;;13.22;36.82;100759.80;1728917;82;21552;-67
2022/12/28 12:55:16;;;;;;;5.83;2.42;;;;;;;13.50;37.13;100756.59;1729573;82;21047;-65
2022/12/28 12:58:02;;;;;;;9.60;2.77;;;;;;;13.52;37.35;100768.84;1729042;82;21222;-66
2022/12/28 13:00:55;;;;;;;6.78;3.02;;;;;;;13.73;37.20;100768.91;1729359;83;21041;-67
2022/12/28 13:03:42;;;;;;;7.78;2.92;;;;;;;14.16;36.24;100762.73;1728896;82;21555;-67
2022/12/28 13:06:12;;;;;;;7.33;2.90;;;;;;;14.62;35.49;100775.38;1729475;83;21065;-68
2022/12/28 13:08:46;;;;;;;6.75;2.60;;;;;;;14.70;36.54;100768.44;1729512;82;21535;-67
2022/12/28 13:11:13;;;;;;;10.00;2.70;;;;;;;14.47;35.91;100780.86;1727303;82;22153;-67
2022/12/28 13:13:42;;;;;;;9.23;2.92;;;;;;;14.68;35.60;100771.61;1691137;84;21059;-67
2022/12/28 13:16:12;;;;;;;7.22;2.60;;;;;;;14.37;36.16;100777.33;1703635;84;21723;-67
2022/12/28 13:18:38;;;;;;;8.50;3.02;;;;;;;14.31;35.71;100778.47;1683774;84;21346;-67
2022/12/28 13:21:06;;;;;;;6.95;2.62;;;;;;;14.89;36.29;100782.59;1704320;84;21048;-66
2022/12/28 13:23:41;;;;;;;5.03;2.72;;;;;;;13.97;36.71;100790.44;1704045;84;21148;-67
2022/12/28 13:26:08;;;;;;;5.25;2.60;;;;;;;13.92;36.43;100791.10;1704347;84;21127;-67
2022/12/28 13:28:35;;;;;;;9.13;3.20;;;;;;;13.46;37.63;100792.91;1736385;81;22223;-67
2022/12/28 13:31:20;;;;;;;8.43;3.20;;;;;;;13.36;37.17;100793.70;1767885;81;21012;-67
2022/12/28 13:34:04;;;;;;;7.90;2.62;;;;;;;12.45;38.68;100795.23;1767785;81;21165;-67
2022/12/28 13:36:31;;;;;;;8.03;2.45;;;;;;;12.87;39.03;100793.31;1767872;81;21126;-65
2022/12/28 13:39:09;;;;;;;9.40;3.00;;;;;;;12.68;38.72;100799.25;1767819;81;21044;-67
2022/12/28 13:41:36;;;;;;;7.58;2.83;;;;;;;12.78;39.40;100798.00;1768001;81;21020;-66
2022/12/28 13:44:14;;;;;;;7.42;2.72;;;;;;;12.55;39.29;100801.44;1767714;81;21083;-66
2022/12/28 13:46:43;;;;;;;7.40;3.20;;;;;;;12.64;39.60;100798.09;1768349;81;21087;-65
2022/12/28 13:49:09;;;;;;;7.60;3.22;;;;;;;12.68;40.48;100801.89;1767711;81;21552;-66
2022/12/28 13:51:37;;;;;;;8.00;2.72;;;;;;;12.80;39.45;100798.81;1767870;81;21565;-66
2022/12/28 13:54:04;;;;;;;4.40;2.67;;;;;;;12.39;40.37;100800.24;1767826;81;21235;-66
2022/12/28 13:56:30;;;;;;;7.50;3.72;;;;;;;12.22;41.94;100802.14;1767885;81;21052;-66
2022/12/28 13:59:01;;;;;;;9.55;3.80;;;;;;;12.05;40.74;100803.13;1767934;81;21047;-66
2022/12/28 14:01:34;;;;;;;7.80;4.00;;;;;;;11.80;42.90;100805.66;1768066;81;21080;-66
2022/12/28 14:04:05;;;;;;;16.80;6.45;;;;;;;11.82;42.46;100801.20;1767177;81;21126;-66
2022/12/28 14:06:31;;;;;;;16.30;7.60;;;;;;;11.90;41.84;100801.86;1767957;81;21023;-66
2022/12/28 14:08:58;;;;;;;21.52;9.45;;;;;;;11.82;44.12;100796.77;1767752;81;21096;-67
2022/12/28 14:11:25;;;;;;;20.90;8.60;;;;;;;11.99;41.96;100798.93;1774295;80;21080;-66
2022/12/28 14:13:53;;;;;;;15.50;7.50;;;;;;;11.89;42.91;100797.05;1784835;80;21912;-67
2022/12/28 14:16:19;;;;;;;18.70;7.33;;;;;;;11.79;43.63;100799.52;1740456;81;21527;-67
2022/12/28 14:18:46;;;;;;;14.68;6.97;;;;;;;11.92;42.63;100804.86;1776017;80;21093;-67
2022/12/28 14:21:12;;;;;;;11.63;5.00;;;;;;;12.11;43.09;100802.95;1775531;80;21540;-67
2022/12/28 14:23:39;;;;;;;9.50;4.08;;;;;;;11.79;42.74;100802.16;1775872;80;21085;-67
2022/12/28 14:26:09;;;;;;;10.00;4.60;;;;;;;11.66;43.52;100807.40;1775766;80;21243;-64
2022/12/28 14:28:46;;;;;;;14.07;5.58;;;;;;;10.81;45.89;100797.12;1761508;80;21489;-66
2022/12/28 14:31:15;;;;;;;11.57;5.47;;;;;;;10.49;45.59;100804.13;1762030;80;21634;-64
2022/12/28 14:33:53;;;;;;;14.33;6.00;;;;;;;10.86;46.90;100809.27;1761786;81;21596;-64
2022/12/28 14:36:22;;;;;;;18.37;9.25;;;;;;;10.57;46.64;100820.58;1762226;81;21024;-65
2022/12/28 14:38:51;;;;;;;12.20;5.85;;;;;;;10.74;45.54;100815.31;1761993;81;21224;-66
2022/12/28 14:41:24;;;;;;;13.28;5.72;;;;;;;10.84;47.24;100807.59;1762349;81;21045;-65
2022/12/28 14:43:54;;;;;;;10.15;5.83;;;;;;;10.91;45.88;100805.20;1760051;81;21096;-65
2022/12/28 14:46:36;;;;;;;13.15;5.25;;;;;;;11.19;45.43;100809.23;1762485;81;21476;-65
2022/12/28 14:49:32;;;;;;;12.88;6.42;;;;;;;10.67;47.18;100808.91;1734652;81;21126;-66
2022/12/28 14:52:15;;;;;;;33.00;14.95;;;;;;;10.95;45.80;100808.16;1738075;82;21796;-66
2022/12/28 14:54:49;;;;;;;22.70;9.53;;;;;;;10.04;47.62;100806.96;1766098;81;21074;-65
2022/12/28 14:57:41;;;;;;;21.40;8.48;;;;;;;10.36;48.93;100800.08;1742363;81;21571;-66
2022/12/28 15:00:33;;;;;;;25.15;9.63;;;;;;;10.70;47.13;100807.50;1766129;81;21087;-65
2022/12/28 15:03:17;;;;;;;16.20;7.17;;;;;;;10.65;46.67;100801.50;1765877;81;21051;-66
2022/12/28 15:05:47;;;;;;;12.15;6.78;;;;;;;10.25;48.41;100810.37;1766216;81;22075;-64
2022/12/28 15:08:14;;;;;;;16.90;8.50;;;;;;;10.04;48.22;100812.22;1766052;81;21032;-66
2022/12/28 15:10:48;;;;;;;20.43;8.33;;;;;;;9.84;48.74;100812.22;1766235;81;21091;-65
2022/12/28 15:13:16;;;;;;;13.75;7.42;;;;;;;9.70;48.99;100806.42;1755416;81;21107;-65
2022/12/28 15:15:44;;;;;;;14.98;7.00;;;;;;;9.70;48.99;100806.42;1755474;81;21024;-65
2022/12/28 15:18:11;;;;;;;17.12;6.80;;;;;;;9.57;49.71;100809.79;1729876;81;21575;-66
2022/12/28 15:20:38;;;;;;;20.05;9.90;;;;;;;9.85;49.72;100810.02;1755236;81;21045;-65
2022/12/28 15:23:05;;;;;;;29.45;13.55;;;;;;;9.71;49.22;100806.85;1755027;81;21079;-65
2022/12/28 15:25:33;;;;;;;30.65;14.68;;;;;;;9.39;50.55;100817.63;1755395;81;21049;-65
2022/12/28 15:27:59;;;;;;;44.73;18.57;;;;;;;9.32;50.41;100804.19;1755486;81;21027;-65
2022/12/28 15:30:26;;;;;;;39.33;19.37;;;;;;;9.56;50.35;100805.87;1755265;81;21242;-65
2022/12/28 15:32:53;;;;;;;36.35;18.27;;;;;;;9.26;51.36;100809.56;1754912;81;21492;-66
2022/12/28 15:35:20;;;;;;;30.45;15.60;;;;;;;9.23;50.78;100812.27;1755383;81;21008;-65
2022/12/28 15:37:46;;;;;;;18.42;10.72;;;;;;;9.17;51.68;100801.88;1755261;81;21048;-65
2022/12/28 15:40:13;;;;;;;21.20;9.60;;;;;;;9.06;51.62;100813.05;1755093;81;21071;-66
2022/12/28 15:42:44;;;;;;;17.70;7.80;;;;;;;9.12;52.01;100804.59;1755491;81;21508;-66
2022/12/28 15:45:12;;;;;;;16.45;8.68;;;;;;;8.94;53.22;100804.96;1754816;81;23745;-64
2022/12/28 15:47:38;;;;;;;21.52;9.68;;;;;;;9.09;51.91;100804.67;1755651;81;21064;-64
2022/12/28 15:50:06;;;;;;;21.90;9.40;;;;;;;9.39;52.23;100802.30;1755285;81;21032;-65
2022/12/28 15:52:32;;;;;;;25.37;11.57;;;;;;;9.14;52.15;100802.80;1755042;81;21016;-65
2022/12/28 15:54:59;;;;;;;22.93;11.20;;;;;;;9.07;51.62;100810.40;1755118;81;22012;-66